Airport ID:KJTC
Update Time (UTC):22/08/2019 05:11
Wind Speed (Knots):11
Wind Direction (Magnetic):170
Temperature (°C):20
Dew Point (°C):6
Humidity (%):39
Altimeter (inHg):30.25
Density Altitude (Feet):9000
Visibility (Miles):10+
Clouds (Hundreds of feet):CLR
Present Weather:
METAR:METAR KJTC 220510Z AUTO 18011KT 10SM CLR 20/06 A3025 RMK AO2

The data displayed is for advisory purposes only and is not to be used for flight planning or operations.

This page is not automatically refreshed. Reload the page to see current data.